Time;durP1;ratioP1;P1;durP2;ratioP2;P2;SDS_P1;SDS_P2;PMS_P1;PMS_P2;Temp;Humidity;BMP_temperature;BMP_pressure;BME280_temperature;BME280_humidity;BME280_pressure;Samples;Min_cycle;Max_cycle;Signal;HPM_P1;HPM_P2
2024/02/18 00:01:09;;;;;;;10.02;3.75;;;11.50;99.90;;;;;;4142976;28;20042;-59
2024/02/18 00:03:10;;;;;;;9.40;4.03;;;11.50;99.90;;;;;;4141239;28;20399;-60
2024/02/18 00:05:12;;;;;;;9.38;3.80;;;11.50;99.90;;;;;;4141579;28;20054;-60
2024/02/18 00:07:13;;;;;;;8.98;3.65;;;11.50;99.90;;;;;;4142906;28;20115;-59
2024/02/18 00:09:14;;;;;;;7.78;3.92;;;11.50;99.90;;;;;;4141593;28;20100;-60
2024/02/18 00:11:16;;;;;;;7.88;3.95;;;11.50;99.90;;;;;;4143846;28;20295;-68
2024/02/18 00:13:16;;;;;;;10.15;3.97;;;11.50;99.90;;;;;;4143027;28;20482;-68
2024/02/18 00:15:17;;;;;;;8.40;3.65;;;11.50;99.90;;;;;;4145074;28;20172;-68
2024/02/18 00:17:18;;;;;;;6.47;3.30;;;11.50;99.90;;;;;;4144980;28;20045;-68
2024/02/18 00:19:19;;;;;;;5.93;3.55;;;11.50;99.90;;;;;;4142452;28;20135;-68
2024/02/18 00:21:19;;;;;;;5.32;3.25;;;11.50;99.90;;;;;;4143355;28;20034;-68
2024/02/18 00:23:20;;;;;;;9.20;3.40;;;11.40;99.90;;;;;;4144673;28;20461;-68
2024/02/18 00:25:20;;;;;;;5.75;3.30;;;11.50;99.90;;;;;;4143743;28;26165;-68
2024/02/18 00:27:21;;;;;;;8.55;3.78;;;11.50;99.90;;;;;;4144537;28;20125;-68
2024/02/18 00:29:22;;;;;;;7.70;3.55;;;11.50;99.90;;;;;;4143725;28;20038;-68
2024/02/18 00:31:22;;;;;;;3.83;2.65;;;11.50;99.90;;;;;;4144845;28;20042;-68
2024/02/18 00:33:23;;;;;;;7.05;3.17;;;11.50;99.90;;;;;;4144749;28;20088;-68
2024/02/18 00:35:23;;;;;;;6.72;3.55;;;11.50;99.90;;;;;;4143936;28;20038;-68
2024/02/18 00:37:25;;;;;;;7.55;3.08;;;11.50;99.90;;;;;;4144511;28;20042;-68
2024/02/18 00:39:26;;;;;;;5.90;3.17;;;11.50;99.90;;;;;;4143468;28;20038;-68
2024/02/18 00:41:26;;;;;;;10.30;3.85;;;11.50;99.90;;;;;;4148438;28;20079;-68
2024/02/18 00:43:27;;;;;;;5.47;3.10;;;11.50;99.90;;;;;;4144816;28;20037;-68
2024/02/18 00:45:27;;;;;;;8.50;3.22;;;11.50;99.90;;;;;;4142487;28;20046;-68
2024/02/18 00:47:28;;;;;;;7.40;2.78;;;11.50;99.90;;;;;;4144296;28;20034;-69
2024/02/18 00:49:29;;;;;;;6.47;3.30;;;11.50;99.90;;;;;;4143081;28;20048;-68
2024/02/18 00:51:29;;;;;;;4.70;2.70;;;11.50;99.90;;;;;;4143166;28;20093;-68
2024/02/18 00:53:30;;;;;;;4.03;2.75;;;11.50;99.90;;;;;;4141874;28;20123;-68
2024/02/18 00:55:31;;;;;;;6.20;3.08;;;11.60;99.90;;;;;;4143498;28;20038;-68
2024/02/18 00:57:31;;;;;;;5.20;2.63;;;11.60;99.90;;;;;;4144448;28;20046;-68
2024/02/18 00:59:32;;;;;;;7.90;3.10;;;11.60;99.90;;;;;;4143935;28;20045;-67
2024/02/18 01:01:33;;;;;;;7.20;2.85;;;11.60;99.90;;;;;;4142557;28;20056;-66
2024/02/18 01:03:35;;;;;;;7.00;3.20;;;11.60;99.90;;;;;;4137454;28;20057;-66
2024/02/18 01:05:35;;;;;;;7.22;3.00;;;11.60;99.90;;;;;;4141490;28;20046;-66
2024/02/18 01:07:36;;;;;;;5.95;3.15;;;11.60;99.90;;;;;;4142800;28;20536;-66
2024/02/18 01:09:37;;;;;;;6.45;3.03;;;11.60;99.90;;;;;;4143508;28;20125;-66
2024/02/18 01:11:37;;;;;;;4.93;2.60;;;11.60;99.90;;;;;;4143216;28;20030;-66
2024/02/18 01:13:38;;;;;;;7.03;3.28;;;11.60;99.90;;;;;;4146620;28;20470;-66
2024/02/18 01:15:39;;;;;;;5.95;2.80;;;11.50;99.90;;;;;;4144169;28;20034;-66
2024/02/18 01:17:40;;;;;;;5.47;2.92;;;11.50;99.90;;;;;;4144383;28;20072;-66
2024/02/18 01:19:40;;;;;;;8.27;3.08;;;11.50;99.90;;;;;;4144708;28;20045;-69
2024/02/18 01:21:41;;;;;;;7.47;3.15;;;11.50;99.90;;;;;;4143578;28;20026;-68
2024/02/18 01:23:42;;;;;;;5.97;3.17;;;11.50;99.90;;;;;;4143741;28;20026;-68
2024/02/18 01:25:43;;;;;;;7.68;2.92;;;11.50;99.90;;;;;;4148302;28;20041;-68
2024/02/18 01:27:44;;;;;;;6.80;3.30;;;11.50;99.90;;;;;;4142700;28;20401;-68
2024/02/18 01:29:45;;;;;;;5.90;2.97;;;11.50;99.90;;;;;;4143449;28;20552;-68
2024/02/18 01:31:46;;;;;;;6.20;2.95;;;11.40;99.90;;;;;;4143626;28;20030;-68
2024/02/18 01:33:46;;;;;;;6.85;2.95;;;11.40;99.90;;;;;;4143224;28;20395;-68
2024/02/18 01:35:47;;;;;;;9.50;3.15;;;11.40;99.90;;;;;;4143250;28;20437;-68
2024/02/18 01:37:48;;;;;;;6.63;2.55;;;11.40;99.90;;;;;;4143008;28;20069;-68
2024/02/18 01:39:48;;;;;;;6.05;2.97;;;11.40;99.90;;;;;;4142077;28;20467;-68
2024/02/18 01:41:49;;;;;;;5.65;2.53;;;11.30;99.90;;;;;;4142831;28;20034;-68
2024/02/18 01:43:50;;;;;;;6.15;2.53;;;11.40;99.90;;;;;;4148208;28;20233;-68
2024/02/18 01:45:51;;;;;;;8.43;3.15;;;11.40;99.90;;;;;;4145015;28;20045;-68
2024/02/18 01:47:52;;;;;;;6.47;2.80;;;11.30;99.90;;;;;;4143057;28;20037;-68
2024/02/18 01:49:53;;;;;;;5.70;1.90;;;11.40;99.90;;;;;;4143359;28;20038;-68
2024/02/18 01:51:54;;;;;;;5.00;2.55;;;11.30;99.90;;;;;;4142712;28;20037;-70
2024/02/18 01:53:56;;;;;;;5.40;2.55;;;11.30;99.90;;;;;;4144020;28;20494;-68
2024/02/18 01:55:56;;;;;;;7.07;2.88;;;11.30;99.90;;;;;;4142886;28;20030;-68
2024/02/18 01:57:59;;;;;;;5.80;2.40;;;11.30;99.90;;;;;;4142901;28;20091;-68
2024/02/18 02:00:01;;;;;;;5.10;2.53;;;11.30;99.90;;;;;;4143591;28;20184;-68
2024/02/18 02:02:02;;;;;;;6.55;2.78;;;11.30;99.90;;;;;;4143383;28;20049;-68
2024/02/18 02:04:03;;;;;;;5.57;2.13;;;11.30;99.90;;;;;;4142958;28;20034;-67
2024/02/18 02:06:05;;;;;;;5.13;2.10;;;11.30;99.90;;;;;;4142508;28;20086;-68
2024/02/18 02:08:06;;;;;;;5.78;2.25;;;11.30;99.90;;;;;;4142688;28;20034;-68
2024/02/18 02:10:11;;;;;;;5.90;2.17;;;11.30;99.90;;;;;;4142983;28;20056;-69
2024/02/18 02:12:12;;;;;;;4.93;1.95;;;11.30;99.90;;;;;;4141898;28;20684;-60
2024/02/18 02:14:13;;;;;;;5.93;2.47;;;11.30;99.90;;;;;;4143777;28;20046;-60
2024/02/18 02:16:14;;;;;;;4.22;2.15;;;11.30;99.90;;;;;;4143009;28;20038;-60
2024/02/18 02:18:15;;;;;;;3.97;2.03;;;11.30;99.90;;;;;;4141050;28;20519;-60
2024/02/18 02:20:16;;;;;;;7.88;2.35;;;11.30;99.90;;;;;;4141545;28;20089;-60
2024/02/18 02:22:16;;;;;;;4.15;1.75;;;11.30;99.90;;;;;;4145785;28;20058;-59
2024/02/18 02:24:17;;;;;;;3.03;1.80;;;11.30;99.90;;;;;;4143331;28;20049;-60
2024/02/18 02:26:20;;;;;;;5.10;2.10;;;11.30;99.90;;;;;;4142357;28;20066;-59
2024/02/18 02:28:24;;;;;;;4.80;2.05;;;11.30;99.90;;;;;;4144625;28;20040;-60
2024/02/18 02:30:26;;;;;;;4.32;1.88;;;11.30;99.90;;;;;;4139010;28;20530;-60
2024/02/18 02:32:27;;;;;;;3.88;1.73;;;11.30;99.90;;;;;;4147580;28;20042;-69
2024/02/18 02:34:28;;;;;;;7.90;2.28;;;11.30;99.90;;;;;;4143149;28;20188;-70
2024/02/18 02:36:29;;;;;;;6.47;2.00;;;11.30;99.90;;;;;;4141917;28;20493;-69
2024/02/18 02:38:30;;;;;;;4.90;2.00;;;11.30;99.90;;;;;;4141237;28;20426;-69
2024/02/18 02:40:30;;;;;;;4.38;1.63;;;11.30;99.90;;;;;;4140568;28;20033;-69
2024/02/18 02:42:32;;;;;;;5.93;2.17;;;11.30;99.90;;;;;;4143098;28;20036;-70
2024/02/18 02:44:33;;;;;;;4.45;1.98;;;11.30;99.90;;;;;;4147229;28;20029;-67
2024/02/18 02:46:33;;;;;;;5.22;1.77;;;11.40;99.90;;;;;;4143239;28;20124;-67
2024/02/18 02:48:34;;;;;;;6.38;2.05;;;11.30;99.90;;;;;;4146372;28;20080;-68
2024/02/18 02:50:35;;;;;;;6.88;1.92;;;11.30;99.90;;;;;;4143178;28;20050;-69
2024/02/18 02:52:38;;;;;;;4.53;1.70;;;11.40;99.90;;;;;;4145759;28;20029;-69
2024/02/18 02:54:39;;;;;;;3.20;1.65;;;11.40;99.90;;;;;;4146110;28;20038;-69
2024/02/18 02:56:40;;;;;;;5.63;2.05;;;11.30;99.90;;;;;;4144808;28;20557;-69
2024/02/18 02:58:40;;;;;;;11.38;2.05;;;11.30;99.90;;;;;;4151342;28;20048;-68
2024/02/18 03:00:41;;;;;;;4.65;1.85;;;11.40;99.90;;;;;;4145712;28;20030;-69
2024/02/18 03:02:41;;;;;;;6.25;2.00;;;11.30;99.90;;;;;;4148000;28;20475;-69
2024/02/18 03:04:42;;;;;;;5.38;2.33;;;11.30;99.90;;;;;;4140840;28;20030;-69
2024/02/18 03:06:42;;;;;;;5.53;2.17;;;11.30;99.90;;;;;;4146956;28;20042;-70
2024/02/18 03:08:43;;;;;;;4.93;2.08;;;11.30;99.90;;;;;;4145481;28;20033;-69
2024/02/18 03:10:44;;;;;;;8.48;2.30;;;11.30;99.90;;;;;;4138103;28;20041;-69
2024/02/18 03:12:45;;;;;;;6.82;2.10;;;11.30;99.90;;;;;;4146313;28;20034;-70
2024/02/18 03:14:45;;;;;;;5.15;1.98;;;11.30;99.90;;;;;;4145964;28;20045;-69
2024/02/18 03:16:46;;;;;;;5.47;1.70;;;11.20;99.90;;;;;;4145440;28;20038;-70
2024/02/18 03:18:47;;;;;;;6.60;1.60;;;11.20;99.90;;;;;;4145377;28;20092;-70
2024/02/18 03:20:47;;;;;;;3.88;1.65;;;11.20;99.90;;;;;;4144004;28;20029;-68
2024/02/18 03:22:49;;;;;;;9.88;2.10;;;11.20;99.90;;;;;;4145554;28;20026;-68
2024/02/18 03:24:50;;;;;;;4.43;1.60;;;11.20;99.90;;;;;;4144447;28;20064;-68
2024/02/18 03:26:51;;;;;;;10.07;2.38;;;11.20;99.90;;;;;;4144822;28;20042;-68
2024/02/18 03:28:52;;;;;;;6.75;1.70;;;11.20;99.90;;;;;;4146136;28;20076;-68
2024/02/18 03:30:53;;;;;;;4.82;1.92;;;11.20;99.90;;;;;;4145572;28;20037;-68
2024/02/18 03:32:54;;;;;;;7.22;1.60;;;11.10;99.90;;;;;;4145643;28;20530;-68
2024/02/18 03:34:54;;;;;;;6.03;1.70;;;11.10;99.90;;;;;;4147182;28;20544;-68
2024/02/18 03:36:55;;;;;;;6.63;1.75;;;11.10;99.90;;;;;;4149539;28;20038;-68
2024/02/18 03:38:55;;;;;;;3.38;1.92;;;11.10;99.90;;;;;;4144513;28;20390;-68
2024/02/18 03:40:56;;;;;;;5.35;1.75;;;11.10;99.90;;;;;;4144600;28;20479;-70
2024/02/18 03:42:56;;;;;;;6.20;2.05;;;11.10;99.90;;;;;;4146076;28;20030;-69
2024/02/18 03:44:57;;;;;;;6.75;1.77;;;11.10;99.90;;;;;;4143419;28;20030;-69
2024/02/18 03:46:58;;;;;;;7.15;2.20;;;11.10;99.90;;;;;;4143920;28;20175;-69
2024/02/18 03:48:58;;;;;;;6.13;2.20;;;11.10;99.90;;;;;;4144387;28;20034;-70
2024/02/18 03:50:59;;;;;;;6.57;1.92;;;11.10;99.90;;;;;;4143995;28;20042;-70
2024/02/18 03:52:59;;;;;;;5.38;1.50;;;11.10;99.90;;;;;;4145338;28;20026;-69
2024/02/18 03:55:00;;;;;;;8.18;1.75;;;11.10;99.90;;;;;;4149112;28;20083;-70
2024/02/18 03:57:01;;;;;;;6.00;2.10;;;11.10;99.90;;;;;;4143404;28;20125;-70
2024/02/18 03:59:01;;;;;;;4.72;1.63;;;11.10;99.90;;;;;;4142206;28;20042;-69
2024/02/18 04:01:02;;;;;;;5.60;1.77;;;11.10;99.90;;;;;;4143329;28;20395;-69
2024/02/18 04:03:03;;;;;;;5.40;1.88;;;11.10;99.90;;;;;;4144757;28;20096;-69
2024/02/18 04:05:06;;;;;;;5.57;1.73;;;11.10;99.90;;;;;;4147064;28;21050;-70
2024/02/18 04:07:08;;;;;;;6.30;1.80;;;11.10;99.90;;;;;;4145716;28;20125;-69
2024/02/18 04:09:11;;;;;;;4.60;1.70;;;11.00;99.90;;;;;;4143802;28;20072;-69
2024/02/18 04:11:11;;;;;;;2.13;1.50;;;11.10;99.90;;;;;;4144201;28;20045;-70
2024/02/18 04:13:12;;;;;;;4.78;1.75;;;11.10;99.90;;;;;;4144781;28;20482;-69
2024/02/18 04:15:13;;;;;;;3.60;1.80;;;11.10;99.90;;;;;;4143204;28;20049;-70
2024/02/18 04:17:13;;;;;;;3.85;1.60;;;11.10;99.90;;;;;;4143081;28;20050;-70
2024/02/18 04:19:14;;;;;;;4.13;1.60;;;11.10;99.90;;;;;;4142311;28;20125;-70
2024/02/18 04:21:14;;;;;;;7.30;2.15;;;11.20;99.90;;;;;;4143843;28;20068;-70
2024/02/18 04:23:15;;;;;;;3.80;1.60;;;11.10;99.90;;;;;;4145014;28;20483;-69
2024/02/18 04:25:16;;;;;;;6.32;1.92;;;11.10;99.90;;;;;;4143945;28;20045;-69
2024/02/18 04:27:16;;;;;;;4.80;1.92;;;11.10;99.90;;;;;;4145061;28;20530;-70
2024/02/18 04:29:17;;;;;;;6.07;1.65;;;11.10;99.90;;;;;;4126131;28;20050;-69
2024/02/18 04:31:17;;;;;;;6.28;2.00;;;11.10;99.90;;;;;;4143889;28;20037;-60
2024/02/18 04:33:18;;;;;;;4.03;1.83;;;11.10;99.90;;;;;;4144813;28;20060;-60
2024/02/18 04:35:19;;;;;;;4.38;2.25;;;11.10;99.90;;;;;;4143547;28;20478;-60
2024/02/18 04:37:19;;;;;;;5.30;1.85;;;11.10;99.90;;;;;;4145643;28;20132;-60
2024/02/18 04:39:20;;;;;;;4.57;1.60;;;11.00;99.90;;;;;;4143559;28;20130;-60
2024/02/18 04:41:21;;;;;;;3.30;1.70;;;11.00;99.90;;;;;;4143261;28;20426;-59
2024/02/18 04:43:21;;;;;;;3.85;1.83;;;11.00;99.90;;;;;;4144413;28;20038;-60
2024/02/18 04:45:22;;;;;;;3.70;1.88;;;11.00;99.90;;;;;;4141786;28;20505;-60
2024/02/18 04:47:23;;;;;;;3.63;1.60;;;11.10;99.90;;;;;;4142889;28;20120;-59
2024/02/18 04:49:24;;;;;;;7.35;2.25;;;11.10;99.90;;;;;;4142614;28;20100;-60
2024/02/18 04:51:25;;;;;;;6.65;2.20;;;11.00;99.90;;;;;;4143506;28;20044;-60
2024/02/18 04:53:26;;;;;;;3.78;1.73;;;11.00;99.90;;;;;;4143237;28;20483;-60
2024/02/18 04:55:27;;;;;;;6.85;2.10;;;11.00;99.90;;;;;;4143175;28;20073;-59
2024/02/18 04:57:28;;;;;;;7.70;2.08;;;11.00;99.90;;;;;;4147746;28;20042;-60
2024/02/18 04:59:28;;;;;;;5.63;1.83;;;11.00;99.90;;;;;;4149347;28;20037;-60
2024/02/18 05:01:29;;;;;;;7.43;2.28;;;11.00;99.90;;;;;;4142163;28;20046;-60
2024/02/18 05:03:30;;;;;;;3.55;1.52;;;11.00;99.90;;;;;;4145176;28;20132;-59
2024/02/18 05:05:30;;;;;;;4.15;2.00;;;11.00;99.90;;;;;;4142821;28;20700;-60
2024/02/18 05:07:31;;;;;;;5.72;2.05;;;10.90;99.90;;;;;;4144658;28;21033;-60
2024/02/18 05:09:31;;;;;;;6.22;2.10;;;10.90;99.90;;;;;;4143906;28;20032;-60
2024/02/18 05:11:32;;;;;;;4.47;2.00;;;10.90;99.90;;;;;;4143342;28;20030;-60
2024/02/18 05:13:32;;;;;;;2.88;1.40;;;10.90;99.90;;;;;;4144116;28;20372;-60
2024/02/18 05:15:33;;;;;;;4.80;2.05;;;10.90;99.90;;;;;;4145582;28;20042;-60
2024/02/18 05:17:33;;;;;;;5.47;2.00;;;10.90;99.90;;;;;;4145375;28;20049;-64
2024/02/18 05:19:34;;;;;;;6.93;2.10;;;10.90;99.90;;;;;;4142905;28;20048;-60
2024/02/18 05:21:39;;;;;;;4.18;1.83;;;10.80;99.90;;;;;;4138341;28;20049;-62
2024/02/18 05:23:40;;;;;;;7.47;1.90;;;10.80;99.90;;;;;;4126433;28;20121;-60
2024/02/18 05:25:40;;;;;;;9.57;2.50;;;10.80;99.90;;;;;;4141677;28;20042;-60
2024/02/18 05:27:41;;;;;;;5.78;1.75;;;10.80;99.90;;;;;;4150288;28;20052;-59
2024/02/18 05:29:42;;;;;;;3.88;2.00;;;10.80;99.90;;;;;;4140876;28;20478;-60
2024/02/18 05:31:42;;;;;;;6.72;1.95;;;10.90;99.90;;;;;;4139883;28;20100;-60
2024/02/18 05:33:43;;;;;;;6.25;2.28;;;10.80;99.90;;;;;;4143032;28;20046;-60
2024/02/18 05:35:43;;;;;;;7.13;2.50;;;10.80;99.90;;;;;;4139977;28;20482;-59
2024/02/18 05:37:44;;;;;;;5.50;1.95;;;10.80;99.90;;;;;;4138478;28;20505;-60
2024/02/18 05:39:45;;;;;;;4.53;1.90;;;10.80;99.90;;;;;;4139531;28;20553;-66
2024/02/18 05:41:45;;;;;;;3.85;1.73;;;10.70;99.90;;;;;;4144004;28;20047;-59
2024/02/18 05:43:46;;;;;;;5.97;2.30;;;10.80;99.90;;;;;;4144777;28;20046;-59
2024/02/18 05:45:46;;;;;;;4.10;2.20;;;10.70;99.90;;;;;;4148785;28;20387;-60
2024/02/18 05:47:47;;;;;;;5.90;1.98;;;10.70;99.90;;;;;;4146865;28;20045;-60
2024/02/18 05:49:47;;;;;;;7.63;2.08;;;10.70;99.90;;;;;;4141842;28;20038;-60
2024/02/18 05:51:53;;;;;;;3.67;1.95;;;10.70;99.90;;;;;;4142280;28;20112;-59
2024/02/18 05:53:53;;;;;;;6.53;3.40;;;10.70;99.90;;;;;;4140562;28;20042;-59
2024/02/18 05:55:54;;;;;;;6.57;3.03;;;10.70;99.90;;;;;;4142744;28;20046;-60
2024/02/18 05:57:54;;;;;;;6.15;2.25;;;10.70;99.90;;;;;;4140605;28;20429;-60
2024/02/18 05:59:55;;;;;;;5.22;2.10;;;10.70;99.90;;;;;;4141965;28;20583;-66
2024/02/18 06:01:56;;;;;;;7.22;2.17;;;10.70;99.90;;;;;;4142323;28;20038;-60
2024/02/18 06:03:57;;;;;;;7.15;2.10;;;10.70;99.90;;;;;;4143685;28;20422;-60
2024/02/18 06:05:58;;;;;;;5.43;1.90;;;10.70;99.90;;;;;;4143330;28;20049;-59
2024/02/18 06:07:58;;;;;;;4.95;2.10;;;10.70;99.90;;;;;;4141150;28;20037;-60
2024/02/18 06:09:59;;;;;;;5.75;2.03;;;10.70;99.90;;;;;;4135131;28;20029;-59
2024/02/18 06:12:00;;;;;;;3.28;1.80;;;10.70;99.90;;;;;;4145111;28;20040;-59
2024/02/18 06:14:01;;;;;;;5.07;1.85;;;10.70;99.90;;;;;;4142704;28;20038;-60
2024/02/18 06:16:03;;;;;;;6.38;2.10;;;10.70;99.90;;;;;;4145203;28;20049;-60
2024/02/18 06:18:04;;;;;;;3.63;1.90;;;10.70;99.90;;;;;;4142877;28;20653;-59
2024/02/18 06:20:05;;;;;;;4.53;2.10;;;10.70;99.90;;;;;;4143558;28;20066;-64
2024/02/18 06:22:05;;;;;;;4.20;2.05;;;10.60;99.90;;;;;;4145366;28;20042;-65
2024/02/18 06:24:06;;;;;;;3.63;2.08;;;10.60;99.90;;;;;;4146055;28;20514;-61
2024/02/18 06:26:07;;;;;;;4.70;2.13;;;10.70;99.90;;;;;;4144906;28;20038;-61
2024/02/18 06:28:08;;;;;;;3.60;2.03;;;10.60;99.90;;;;;;4145390;28;20092;-60
2024/02/18 06:30:10;;;;;;;6.57;2.35;;;10.60;99.90;;;;;;4144561;28;20046;-61
2024/02/18 06:32:11;;;;;;;8.82;2.10;;;10.60;99.90;;;;;;4146086;28;20074;-60
2024/02/18 06:34:12;;;;;;;4.78;2.08;;;10.60;99.90;;;;;;4146529;28;20032;-60
2024/02/18 06:36:13;;;;;;;4.13;2.05;;;10.50;99.90;;;;;;4141332;28;20124;-60
2024/02/18 06:38:14;;;;;;;5.43;2.28;;;10.50;99.90;;;;;;4138544;28;20041;-60
2024/02/18 06:40:14;;;;;;;3.60;1.77;;;10.60;99.90;;;;;;4136976;28;20042;-60
2024/02/18 06:42:15;;;;;;;4.80;2.17;;;10.50;99.90;;;;;;4149578;28;20479;-60
2024/02/18 06:44:16;;;;;;;5.07;2.10;;;10.50;99.90;;;;;;4141745;28;20058;-60
2024/02/18 06:46:16;;;;;;;5.75;2.22;;;10.50;99.90;;;;;;4145653;28;20038;-60
2024/02/18 06:48:17;;;;;;;5.22;2.45;;;10.40;99.90;;;;;;4147604;28;20045;-61
2024/02/18 06:50:18;;;;;;;4.55;2.17;;;10.40;99.90;;;;;;4146382;28;20477;-60
2024/02/18 06:52:19;;;;;;;4.90;2.20;;;10.40;99.90;;;;;;4144373;28;20432;-67
2024/02/18 06:54:19;;;;;;;5.40;2.38;;;10.40;99.90;;;;;;4114161;28;20038;-65
2024/02/18 06:56:20;;;;;;;6.97;1.92;;;10.30;99.90;;;;;;4146917;28;20045;-65
2024/02/18 06:58:21;;;;;;;8.40;2.50;;;10.40;99.90;;;;;;4149108;28;20097;-65
2024/02/18 07:00:22;;;;;;;5.40;2.00;;;10.30;99.90;;;;;;4146968;28;20431;-65
2024/02/18 07:02:23;;;;;;;4.20;1.80;;;10.30;99.90;;;;;;4150439;28;20037;-65
2024/02/18 07:04:24;;;;;;;5.88;2.05;;;10.30;99.90;;;;;;4149554;28;20040;-65
2024/02/18 07:06:24;;;;;;;3.95;2.08;;;10.30;99.90;;;;;;4147688;28;20145;-64
2024/02/18 07:08:25;;;;;;;4.93;1.90;;;10.30;99.90;;;;;;4147050;28;20030;-64
2024/02/18 07:10:27;;;;;;;4.90;2.10;;;10.30;99.90;;;;;;4147110;28;20478;-64
2024/02/18 07:12:29;;;;;;;5.53;1.90;;;10.30;99.90;;;;;;4147509;28;20566;-74
2024/02/18 07:14:29;;;;;;;2.80;1.43;;;10.30;99.90;;;;;;4147753;28;20482;-74
2024/02/18 07:16:30;;;;;;;5.53;1.83;;;10.30;99.90;;;;;;4143675;28;20041;-75
2024/02/18 07:18:30;;;;;;;7.20;1.75;;;10.30;99.90;;;;;;4144878;28;20054;-75
2024/02/18 07:20:31;;;;;;;5.65;1.85;;;10.30;99.90;;;;;;4144254;28;20038;-75
2024/02/18 07:22:31;;;;;;;4.28;1.50;;;10.30;99.90;;;;;;4147129;28;20385;-75
2024/02/18 07:24:32;;;;;;;3.90;1.90;;;10.30;99.90;;;;;;4145694;28;20037;-74
2024/02/18 07:26:33;;;;;;;4.20;1.60;;;10.30;99.90;;;;;;4143889;28;20046;-74
2024/02/18 07:28:33;;;;;;;3.67;1.70;;;10.20;99.90;;;;;;4142087;28;20038;-74
2024/02/18 07:30:34;;;;;;;5.43;1.75;;;10.20;99.90;;;;;;4141351;28;20448;-74
2024/02/18 07:32:35;;;;;;;6.93;1.98;;;10.30;99.90;;;;;;4140136;28;20400;-74
2024/02/18 07:34:36;;;;;;;5.88;2.10;;;10.30;99.90;;;;;;4144899;28;20037;-74
2024/02/18 07:36:36;;;;;;;4.13;1.80;;;10.20;99.90;;;;;;4142411;28;20414;-74
2024/02/18 07:38:37;;;;;;;6.53;2.08;;;10.20;99.90;;;;;;4126912;28;20113;-72
2024/02/18 07:40:37;;;;;;;5.78;2.22;;;10.30;99.90;;;;;;4138785;28;20101;-72
2024/02/18 07:42:39;;;;;;;3.47;1.52;;;10.20;99.90;;;;;;4144515;28;20044;-74
2024/02/18 07:44:46;;;;;;;6.00;2.08;;;10.20;99.90;;;;;;4143356;28;20152;-73
2024/02/18 07:46:48;;;;;;;7.13;1.70;;;10.20;99.90;;;;;;4142272;28;20414;-74
2024/02/18 07:48:48;;;;;;;5.65;1.90;;;10.20;99.90;;;;;;4137701;28;20053;-73
2024/02/18 07:50:49;;;;;;;6.35;1.98;;;10.20;99.90;;;;;;4140350;28;20034;-74
2024/02/18 07:52:49;;;;;;;6.30;2.50;;;10.20;99.90;;;;;;4138071;28;20048;-73
2024/02/18 07:54:50;;;;;;;4.63;2.28;;;10.20;99.90;;;;;;4147558;28;20453;-73
2024/02/18 07:56:51;;;;;;;4.75;2.10;;;10.10;99.90;;;;;;4144589;28;20049;-74
2024/02/18 07:58:51;;;;;;;9.48;2.90;;;10.10;99.90;;;;;;4142243;28;20029;-73
2024/02/18 08:00:52;;;;;;;9.07;2.58;;;10.10;99.90;;;;;;4143409;28;20108;-74
2024/02/18 08:02:53;;;;;;;5.25;2.30;;;10.10;99.90;;;;;;4149154;28;20110;-74
2024/02/18 08:04:53;;;;;;;5.30;2.58;;;10.00;99.90;;;;;;4144642;28;20525;-73
2024/02/18 08:06:54;;;;;;;3.75;1.98;;;10.10;99.90;;;;;;4144256;28;20034;-73
2024/02/18 08:08:55;;;;;;;5.10;2.40;;;10.00;99.90;;;;;;4141526;28;20126;-73
2024/02/18 08:10:56;;;;;;;8.13;2.95;;;10.00;99.90;;;;;;4146888;28;20033;-72
2024/02/18 08:12:56;;;;;;;7.78;2.90;;;10.00;99.90;;;;;;4144533;28;20073;-72
2024/02/18 08:14:58;;;;;;;5.38;2.55;;;10.00;99.90;;;;;;4145217;28;20052;-72
2024/02/18 08:16:58;;;;;;;7.70;3.03;;;10.00;99.90;;;;;;4143564;28;20034;-73
2024/02/18 08:18:59;;;;;;;7.32;2.83;;;10.00;99.90;;;;;;4137833;28;20172;-72
2024/02/18 08:20:59;;;;;;;6.18;2.80;;;10.00;99.90;;;;;;4134820;28;20435;-72
2024/02/18 08:23:00;;;;;;;8.88;2.97;;;10.10;99.90;;;;;;4141876;28;20026;-72
2024/02/18 08:25:01;;;;;;;7.53;2.60;;;10.10;99.90;;;;;;4144366;28;20031;-72
2024/02/18 08:27:01;;;;;;;6.68;2.33;;;10.00;99.90;;;;;;4145628;28;20030;-72
2024/02/18 08:29:02;;;;;;;5.20;2.45;;;10.00;99.90;;;;;;4140043;28;20037;-72
2024/02/18 08:31:03;;;;;;;4.80;2.60;;;10.00;99.90;;;;;;4141125;28;20065;-72
2024/02/18 08:33:03;;;;;;;4.03;2.47;;;10.10;99.90;;;;;;4138553;28;20038;-72
2024/02/18 08:35:05;;;;;;;8.95;2.60;;;10.10;99.90;;;;;;4136362;28;20558;-72
2024/02/18 08:37:06;;;;;;;8.60;2.63;;;10.10;99.90;;;;;;4139791;28;20125;-72
2024/02/18 08:39:06;;;;;;;7.80;2.90;;;10.10;99.90;;;;;;4137923;28;20510;-72
2024/02/18 08:41:07;;;;;;;5.82;2.90;;;10.10;99.90;;;;;;4140856;28;20179;-72
2024/02/18 08:43:08;;;;;;;6.43;2.38;;;10.00;99.90;;;;;;4140249;28;20048;-71
2024/02/18 08:45:09;;;;;;;4.55;2.33;;;10.00;99.90;;;;;;4140522;28;20049;-72
2024/02/18 08:47:11;;;;;;;7.13;2.47;;;10.00;99.90;;;;;;4139888;28;20457;-72
2024/02/18 08:49:12;;;;;;;6.57;2.75;;;10.00;99.90;;;;;;4139366;28;20046;-73
2024/02/18 08:51:12;;;;;;;5.45;2.53;;;10.00;99.90;;;;;;4140655;28;20049;-72
2024/02/18 08:53:13;;;;;;;12.60;2.47;;;10.00;99.90;;;;;;4138684;28;20042;-72
2024/02/18 08:55:14;;;;;;;4.45;2.45;;;10.00;99.90;;;;;;4137081;28;20041;-71
2024/02/18 08:57:14;;;;;;;5.68;2.53;;;10.00;99.90;;;;;;4141134;28;20058;-72
2024/02/18 08:59:15;;;;;;;5.80;2.53;;;10.00;99.90;;;;;;4138904;28;20052;-72
2024/02/18 09:01:19;;;;;;;6.50;2.50;;;10.00;99.90;;;;;;4144696;28;20155;-72
2024/02/18 09:03:20;;;;;;;5.18;2.50;;;10.00;99.90;;;;;;4140472;28;20428;-72
2024/02/18 09:05:20;;;;;;;4.22;2.10;;;10.00;99.90;;;;;;4142349;28;20414;-72
2024/02/18 09:07:21;;;;;;;6.47;2.20;;;9.90;99.90;;;;;;4145030;28;20038;-72
2024/02/18 09:09:21;;;;;;;6.40;2.20;;;9.90;99.90;;;;;;4141069;28;20506;-72
2024/02/18 09:11:23;;;;;;;7.43;2.45;;;9.90;99.90;;;;;;4143713;28;20405;-72
2024/02/18 09:13:23;;;;;;;7.70;2.47;;;9.90;99.90;;;;;;4144046;28;20038;-72
2024/02/18 09:15:24;;;;;;;7.20;2.53;;;9.90;99.90;;;;;;4144156;28;20037;-73
2024/02/18 09:17:24;;;;;;;7.47;2.45;;;9.90;99.90;;;;;;4145484;28;20049;-72
2024/02/18 09:19:25;;;;;;;7.28;2.17;;;9.90;99.90;;;;;;4137799;28;20711;-73
2024/02/18 09:21:26;;;;;;;4.10;2.35;;;9.90;99.90;;;;;;4139841;28;20053;-72
2024/02/18 09:23:27;;;;;;;5.78;2.40;;;9.90;99.90;;;;;;4141348;28;20121;-73
2024/02/18 09:25:28;;;;;;;5.57;2.63;;;9.90;99.90;;;;;;4140020;28;20037;-74
2024/02/18 09:27:28;;;;;;;8.50;2.28;;;9.90;99.90;;;;;;4140963;28;20064;-74
2024/02/18 09:29:29;;;;;;;7.30;2.30;;;9.90;99.90;;;;;;4139185;28;20038;-74
2024/02/18 09:31:37;;;;;;;7.05;2.67;;;9.90;99.90;;;;;;4139607;28;20041;-73
2024/02/18 09:33:41;;;;;;;5.93;2.05;;;9.90;99.90;;;;;;4140389;28;20617;-74
2024/02/18 09:35:41;;;;;;;3.63;2.13;;;9.80;99.90;;;;;;4142720;28;20052;-73
2024/02/18 09:37:42;;;;;;;5.60;2.80;;;9.80;99.90;;;;;;4141034;28;20065;-74
2024/02/18 09:39:42;;;;;;;6.05;2.50;;;9.80;99.90;;;;;;4144084;28;20057;-74
2024/02/18 09:41:46;;;;;;;6.63;2.80;;;9.80;99.90;;;;;;4140171;28;20030;-75
2024/02/18 09:43:49;;;;;;;4.53;2.00;;;9.80;99.90;;;;;;4142811;28;20038;-74
2024/02/18 09:45:52;;;;;;;7.18;2.30;;;9.80;99.90;;;;;;4140908;28;20033;-74
2024/02/18 09:47:53;;;;;;;;;;;9.80;99.90;;;;;;4139587;28;20037;-74
2024/02/18 09:49:54;;;;;;;6.75;2.15;;;9.80;99.90;;;;;;4143412;28;19921;-60
2024/02/18 09:51:55;;;;;;;9.68;2.38;;;9.80;99.90;;;;;;4142312;28;20501;-75
2024/02/18 09:53:58;;;;;;;4.78;2.28;;;9.80;99.90;;;;;;4138018;28;20033;-75
2024/02/18 09:56:00;;;;;;;7.45;2.33;;;9.80;99.90;;;;;;4137516;28;20042;-75
2024/02/18 09:58:02;;;;;;;9.63;2.70;;;9.80;99.90;;;;;;4138908;28;20852;-75
2024/02/18 10:00:05;;;;;;;4.60;2.05;;;9.90;99.90;;;;;;4142390;28;20376;-75
2024/02/18 10:02:06;;;;;;;4.43;2.08;;;9.80;99.90;;;;;;4139591;28;20503;-75
2024/02/18 10:04:08;;;;;;;8.32;2.97;;;9.90;99.90;;;;;;4143895;28;20430;-75
2024/02/18 10:06:08;;;;;;;6.80;2.60;;;9.80;99.90;;;;;;4142203;28;20050;-69
2024/02/18 10:08:09;;;;;;;4.00;2.25;;;9.90;99.90;;;;;;4140340;28;20170;-74
2024/02/18 10:10:10;;;;;;;3.10;1.95;;;9.80;99.90;;;;;;4145711;28;20035;-75
2024/02/18 10:12:11;;;;;;;5.50;2.30;;;9.90;99.90;;;;;;4142236;28;20026;-73
2024/02/18 10:14:11;;;;;;;4.68;1.80;;;9.90;99.90;;;;;;4136966;28;20406;-74
2024/02/18 10:16:12;;;;;;;5.55;2.67;;;9.80;99.90;;;;;;4138715;28;20026;-75
2024/02/18 10:18:13;;;;;;;5.88;2.10;;;9.80;99.90;;;;;;4139616;28;20402;-74
2024/02/18 10:20:14;;;;;;;6.38;2.40;;;9.90;99.90;;;;;;4139489;28;20100;-75
2024/02/18 10:22:15;;;;;;;6.63;2.50;;;9.90;99.90;;;;;;4140367;28;20041;-74
2024/02/18 10:24:19;;;;;;;6.18;2.38;;;9.80;99.90;;;;;;4139079;28;20116;-73
2024/02/18 10:26:21;;;;;;;4.30;2.40;;;9.90;99.90;;;;;;4138938;28;20518;-74
2024/02/18 10:28:22;;;;;;;6.40;2.63;;;9.80;99.90;;;;;;4138837;28;20069;-75
2024/02/18 10:30:22;;;;;;;7.78;2.67;;;9.80;99.90;;;;;;4136135;28;20046;-75